createdAt,value
2023-04-03T00:01:23.574Z,4.30
2023-04-03T00:03:53.727Z,4.30
2023-04-03T00:06:22.094Z,4.40
2023-04-03T00:08:50.380Z,4.30
2023-04-03T00:11:18.943Z,4.40
2023-04-03T00:13:47.678Z,4.30
2023-04-03T00:16:16.362Z,4.40
2023-04-03T00:18:44.842Z,4.40
2023-04-03T00:21:15.129Z,4.30
2023-04-03T00:23:43.284Z,4.30
2023-04-03T00:26:11.628Z,4.30
2023-04-03T00:28:39.747Z,4.40
2023-04-03T00:31:08.364Z,4.30
2023-04-03T00:33:36.570Z,4.40
2023-04-03T00:36:09.982Z,4.40
2023-04-03T00:38:39.911Z,4.40
2023-04-03T00:41:08.321Z,4.40
2023-04-03T00:43:36.796Z,4.40
2023-04-03T00:46:05.254Z,4.40
2023-04-03T00:48:35.703Z,4.50
2023-04-03T00:51:05.816Z,4.50
2023-04-03T00:53:39.179Z,4.50
2023-04-03T00:56:12.677Z,4.50
2023-04-03T00:58:44.144Z,4.60
2023-04-03T01:01:17.291Z,4.60
2023-04-03T01:03:45.523Z,4.60
2023-04-03T01:06:14.644Z,4.60
2023-04-03T01:08:42.924Z,4.60
2023-04-03T01:11:12.556Z,4.70
2023-04-03T01:13:41.441Z,4.80
2023-04-03T01:16:10.024Z,4.80
2023-04-03T01:18:41.495Z,4.80
2023-04-03T01:21:30.736Z,4.80
2023-04-03T01:24:08.631Z,4.80
2023-04-03T01:26:38.021Z,4.90
2023-04-03T01:29:06.969Z,4.80
2023-04-03T01:31:48.750Z,4.80
2023-04-03T01:34:16.876Z,4.80
2023-04-03T01:36:45.069Z,4.80
2023-04-03T01:39:13.406Z,4.70
2023-04-03T01:41:41.629Z,4.70
2023-04-03T01:44:10.066Z,4.70
2023-04-03T01:46:38.904Z,4.80
2023-04-03T01:49:08.419Z,4.80
2023-04-03T01:51:36.686Z,4.80
2023-04-03T01:54:05.199Z,4.90
2023-04-03T01:56:33.347Z,4.80
2023-04-03T01:59:01.490Z,4.80
2023-04-03T02:01:29.643Z,4.80
2023-04-03T02:03:57.670Z,4.80
2023-04-03T02:06:27.791Z,4.70
2023-04-03T02:08:56.004Z,4.70
2023-04-03T02:11:24.122Z,4.70
2023-04-03T02:13:52.401Z,4.70
2023-04-03T02:16:20.340Z,4.70
2023-04-03T02:18:48.668Z,4.70
2023-04-03T02:21:16.991Z,4.70
2023-04-03T02:23:46.419Z,4.60
2023-04-03T02:26:17.176Z,4.50
2023-04-03T02:28:45.418Z,4.50
2023-04-03T02:31:13.546Z,4.50
2023-04-03T02:33:42.115Z,4.50
2023-04-03T02:36:10.841Z,4.50
2023-04-03T02:38:38.890Z,4.50
2023-04-03T02:41:10.815Z,4.50
2023-04-03T02:43:39.180Z,4.50
2023-04-03T02:46:07.750Z,4.60
2023-04-03T02:48:36.620Z,4.60
2023-04-03T02:51:05.132Z,4.60
2023-04-03T02:53:33.271Z,4.60
2023-04-03T02:56:01.558Z,4.60
2023-04-03T02:58:31.264Z,4.60
2023-04-03T03:00:59.511Z,4.50
2023-04-03T03:03:27.673Z,4.50
2023-04-03T03:06:03.899Z,4.50
2023-04-03T03:08:32.401Z,4.50
2023-04-03T03:11:00.853Z,4.50
2023-04-03T03:13:31.021Z,4.40
2023-04-03T03:15:59.948Z,4.50
2023-04-03T03:18:28.182Z,4.40
2023-04-03T03:20:57.049Z,4.40
2023-04-03T03:23:27.604Z,4.40
2023-04-03T03:25:58.230Z,4.40
2023-04-03T03:28:26.420Z,4.40
2023-04-03T03:30:56.477Z,4.40
2023-04-03T03:33:24.739Z,4.30
2023-04-03T03:35:53.496Z,4.30
2023-04-03T03:38:22.522Z,4.20
2023-04-03T03:40:51.813Z,4.30
2023-04-03T03:43:21.100Z,4.30
2023-04-03T03:45:52.944Z,4.20
2023-04-03T03:48:23.119Z,4.20
2023-04-03T03:50:51.860Z,4.10
2023-04-03T03:53:20.252Z,4.10
2023-04-03T03:55:48.437Z,4.10
2023-04-03T03:58:17.059Z,4.00
2023-04-03T04:00:45.298Z,3.90
2023-04-03T04:03:13.577Z,3.80
2023-04-03T04:05:45.182Z,3.80
2023-04-03T04:08:13.265Z,3.70
2023-04-03T04:10:41.657Z,3.70
2023-04-03T04:13:10.455Z,3.70
2023-04-03T04:15:40.281Z,3.60
2023-04-03T04:18:08.717Z,3.60
2023-04-03T04:20:38.387Z,3.60
2023-04-03T04:23:08.166Z,3.40
2023-04-03T04:25:36.309Z,3.40
2023-04-03T04:28:04.750Z,3.40
2023-04-03T04:30:33.755Z,3.30
2023-04-03T04:33:02.146Z,3.20
2023-04-03T04:35:31.764Z,3.20
2023-04-03T04:38:00.060Z,3.20
2023-04-03T04:40:29.621Z,3.10
2023-04-03T04:42:57.925Z,3.10
2023-04-03T04:45:26.002Z,3.00
2023-04-03T04:47:54.163Z,3.00
2023-04-03T04:50:22.487Z,2.80
2023-04-03T04:52:50.643Z,2.70
2023-04-03T04:55:19.164Z,2.70
2023-04-03T04:57:48.903Z,2.70
2023-04-03T05:00:18.800Z,2.70
2023-04-03T05:02:47.763Z,2.60
2023-04-03T05:05:16.198Z,2.60
2023-04-03T05:07:46.657Z,2.60
2023-04-03T05:10:14.675Z,2.50
2023-04-03T05:12:43.015Z,2.50
2023-04-03T05:15:13.415Z,2.50
2023-04-03T05:17:41.443Z,2.50
2023-04-03T05:20:10.292Z,2.60
2023-04-03T05:22:38.755Z,2.50
2023-04-03T05:25:08.172Z,2.50
2023-04-03T05:27:36.282Z,2.50
2023-04-03T05:30:05.607Z,2.50
2023-04-03T05:32:35.858Z,2.50
2023-04-03T05:35:04.227Z,2.40
2023-04-03T05:37:32.620Z,2.40
2023-04-03T05:40:00.809Z,2.40
2023-04-03T05:42:29.425Z,2.40
2023-04-03T05:44:57.653Z,2.50
2023-04-03T05:47:32.496Z,2.50
2023-04-03T05:50:01.904Z,2.60
2023-04-03T05:52:31.754Z,2.60
2023-04-03T05:54:59.922Z,2.70
2023-04-03T05:57:28.991Z,2.80
2023-04-03T05:59:57.487Z,2.80
2023-04-03T06:02:27.028Z,2.90
2023-04-03T06:04:56.041Z,2.90
2023-04-03T06:07:29.295Z,2.90
2023-04-03T06:09:58.981Z,2.90
2023-04-03T06:12:27.437Z,2.90
2023-04-03T06:14:55.516Z,2.90
2023-04-03T06:17:25.047Z,3.10
2023-04-03T06:19:53.381Z,3.20
2023-04-03T06:22:22.502Z,3.20
2023-04-03T06:24:51.917Z,3.30
2023-04-03T06:27:20.382Z,3.50
2023-04-03T06:29:49.877Z,3.60
2023-04-03T06:32:20.602Z,3.60
2023-04-03T06:34:48.769Z,3.50
2023-04-03T06:37:19.107Z,3.50
2023-04-03T06:39:47.628Z,3.60
2023-04-03T06:42:17.344Z,3.60
2023-04-03T06:44:45.733Z,3.60
2023-04-03T06:47:16.221Z,3.70
2023-04-03T06:49:45.025Z,3.60
2023-04-03T06:52:14.288Z,3.60
2023-04-03T06:54:42.745Z,3.70
2023-04-03T06:57:10.745Z,3.80
2023-04-03T06:59:41.169Z,3.70
2023-04-03T07:02:14.118Z,3.70
2023-04-03T07:04:42.370Z,3.90
2023-04-03T07:07:11.249Z,3.90
2023-04-03T07:09:39.284Z,3.90
2023-04-03T07:12:09.057Z,4.10
2023-04-03T07:14:37.162Z,4.10
2023-04-03T07:17:07.484Z,4.10
2023-04-03T07:19:35.957Z,4.20
2023-04-03T07:22:04.445Z,4.10
2023-04-03T07:24:34.017Z,4.10
2023-04-03T07:27:04.584Z,4.20
2023-04-03T07:29:32.704Z,4.30
2023-04-03T07:32:01.128Z,4.30
2023-04-03T07:34:31.640Z,4.40
2023-04-03T07:36:59.876Z,4.30
2023-04-03T07:39:28.977Z,4.50
2023-04-03T07:41:57.431Z,4.50
2023-04-03T07:44:25.728Z,4.60
2023-04-03T07:46:53.754Z,4.60
2023-04-03T07:49:24.759Z,4.60
2023-04-03T07:51:54.559Z,4.60
2023-04-03T07:54:22.893Z,4.60
2023-04-03T07:56:51.243Z,4.70
2023-04-03T07:59:19.702Z,4.70
2023-04-03T08:01:47.792Z,4.70
2023-04-03T08:04:16.615Z,4.80
2023-04-03T08:06:47.012Z,4.80
2023-04-03T08:09:17.414Z,4.80
2023-04-03T08:11:46.379Z,4.80
2023-04-03T08:14:18.123Z,4.70
2023-04-03T08:16:46.860Z,4.70
2023-04-03T08:19:25.378Z,4.80
2023-04-03T08:21:57.792Z,4.90
2023-04-03T08:24:28.328Z,4.90
2023-04-03T08:26:56.886Z,4.90
2023-04-03T08:29:25.253Z,5.00
2023-04-03T08:31:53.374Z,4.90
2023-04-03T08:34:23.719Z,4.90
2023-04-03T08:36:55.478Z,5.10
2023-04-03T08:39:23.550Z,5.10
2023-04-03T08:41:53.255Z,5.10
2023-04-03T08:44:27.405Z,5.00
2023-04-03T08:47:18.210Z,4.90
2023-04-03T08:49:56.510Z,5.00
2023-04-03T08:52:38.572Z,5.10
2023-04-03T08:55:09.551Z,5.40
2023-04-03T08:57:45.397Z,5.20
2023-04-03T09:00:20.861Z,5.00
2023-04-03T09:02:53.438Z,5.20
2023-04-03T09:05:25.666Z,5.30
2023-04-03T09:08:05.400Z,5.40
2023-04-03T09:10:39.465Z,5.60
2023-04-03T09:13:17.568Z,5.60
2023-04-03T09:15:47.061Z,5.50
2023-04-03T09:18:20.723Z,5.60
2023-04-03T09:20:56.248Z,5.60
2023-04-03T09:23:30.354Z,5.50
2023-04-03T09:26:06.225Z,5.60
2023-04-03T09:28:49.230Z,5.60
2023-04-03T09:31:25.375Z,5.90
2023-04-03T09:33:57.227Z,6.10
2023-04-03T09:36:42.823Z,6.00
2023-04-03T09:39:15.006Z,5.90
2023-04-03T09:41:44.556Z,6.10
2023-04-03T09:44:27.407Z,6.30
2023-04-03T09:46:57.174Z,6.00
2023-04-03T09:49:25.358Z,5.70
2023-04-03T09:51:54.716Z,5.50
2023-04-03T09:54:39.530Z,5.60
2023-04-03T09:57:12.768Z,5.80
2023-04-03T10:00:00.722Z,6.00
2023-04-03T10:02:37.811Z,5.90
2023-04-03T10:05:27.601Z,5.90
2023-04-03T10:08:11.004Z,6.10
2023-04-03T10:10:40.341Z,5.80
2023-04-03T10:13:20.971Z,6.10
2023-04-03T10:15:57.697Z,5.90
2023-04-03T10:18:34.816Z,5.60
2023-04-03T10:21:14.437Z,5.70
2023-04-03T10:23:56.881Z,5.40
2023-04-03T10:26:33.770Z,5.30
2023-04-03T10:29:09.320Z,5.50
2023-04-03T10:31:47.080Z,5.60
2023-04-03T10:34:24.022Z,5.60
2023-04-03T10:36:58.076Z,6.10
2023-04-03T10:39:35.955Z,6.20
2023-04-03T10:42:17.030Z,6.10
2023-04-03T10:45:00.985Z,6.50
2023-04-03T10:47:39.598Z,6.40
2023-04-03T10:50:29.069Z,6.70
2023-04-03T10:53:05.718Z,6.70
2023-04-03T10:55:40.503Z,6.50
2023-04-03T10:58:14.518Z,6.70
2023-04-03T11:00:47.435Z,6.90
2023-04-03T11:03:19.435Z,6.90
2023-04-03T11:05:51.503Z,7.30
2023-04-03T11:08:31.102Z,7.30
2023-04-03T11:11:02.707Z,7.30
2023-04-03T11:13:37.883Z,7.20
2023-04-03T11:16:07.442Z,6.90
2023-04-03T11:18:42.731Z,7.10
2023-04-03T11:21:20.739Z,7.20
2023-04-03T11:23:50.228Z,7.50
2023-04-03T11:26:21.847Z,7.50
2023-04-03T11:28:55.480Z,7.30
2023-04-03T11:31:35.814Z,7.00
2023-04-03T11:34:16.618Z,6.80
2023-04-03T11:36:48.243Z,7.20
2023-04-03T11:39:24.619Z,7.80
2023-04-03T11:42:00.194Z,8.00
2023-04-03T11:44:38.551Z,7.60
2023-04-03T11:47:09.048Z,7.40
2023-04-03T11:50:00.556Z,7.40
2023-04-03T11:52:59.367Z,7.20
2023-04-03T11:55:47.257Z,7.50
2023-04-03T11:58:18.174Z,7.30
2023-04-03T12:01:03.760Z,7.10
2023-04-03T12:04:01.806Z,7.40
2023-04-03T12:09:31.539Z,7.50
2023-04-03T12:12:02.643Z,7.50
2023-04-03T12:14:32.110Z,7.90
2023-04-03T12:17:01.903Z,7.70
2023-04-03T12:19:42.629Z,7.80
2023-04-03T12:22:17.382Z,7.80
2023-04-03T12:24:49.354Z,7.70
2023-04-03T12:27:28.611Z,8.00
2023-04-03T12:30:02.201Z,8.00
2023-04-03T12:32:45.384Z,8.10
2023-04-03T12:35:22.704Z,7.90
2023-04-03T12:38:19.478Z,7.40
2023-04-03T12:40:55.659Z,7.60
2023-04-03T12:43:39.233Z,7.80
2023-04-03T12:46:17.003Z,7.80
2023-04-03T12:48:54.722Z,8.10
2023-04-03T12:51:28.287Z,8.00
2023-04-03T12:54:03.500Z,8.10
2023-04-03T12:56:35.177Z,8.20
2023-04-03T12:59:17.055Z,8.30
2023-04-03T13:01:46.022Z,8.60
2023-04-03T13:04:14.605Z,8.40
2023-04-03T13:06:44.626Z,8.70
2023-04-03T13:09:23.544Z,8.60
2023-04-03T13:11:57.097Z,8.90
2023-04-03T13:14:29.215Z,8.70
2023-04-03T13:16:58.998Z,8.20
2023-04-03T13:19:30.017Z,8.40
2023-04-03T13:22:03.801Z,8.90
2023-04-03T13:24:34.672Z,8.80
2023-04-03T13:27:05.373Z,8.90
2023-04-03T13:29:35.781Z,8.30
2023-04-03T13:32:05.964Z,8.70
2023-04-03T13:34:39.441Z,8.90
2023-04-03T13:37:09.156Z,8.90
2023-04-03T13:39:39.010Z,8.60
2023-04-03T13:42:23.720Z,8.80
2023-04-03T13:45:08.053Z,8.80
2023-04-03T13:47:42.103Z,8.50
2023-04-03T13:50:18.769Z,8.80
2023-04-03T13:52:49.734Z,8.80
2023-04-03T13:55:26.472Z,8.80
2023-04-03T13:57:59.467Z,8.90
2023-04-03T14:00:38.317Z,8.80
2023-04-03T14:03:16.103Z,8.70
2023-04-03T14:05:44.063Z,8.60
2023-04-03T14:08:12.058Z,8.60
2023-04-03T14:10:41.127Z,8.30
2023-04-03T14:13:14.226Z,8.30
2023-04-03T14:15:43.389Z,8.30
2023-04-03T14:18:13.545Z,8.20
2023-04-03T14:20:42.376Z,8.40
2023-04-03T14:23:12.423Z,8.20
2023-04-03T14:25:41.876Z,8.50
2023-04-03T14:28:19.004Z,8.20
2023-04-03T14:30:48.006Z,8.40
2023-04-03T14:33:18.315Z,8.30
2023-04-03T14:35:46.313Z,8.10
2023-04-03T14:38:26.213Z,8.10
2023-04-03T14:40:57.111Z,8.40
2023-04-03T14:43:28.495Z,8.40
2023-04-03T14:45:56.592Z,8.60
2023-04-03T14:48:27.620Z,8.80
2023-04-03T14:51:05.077Z,8.90
2023-04-03T14:56:12.649Z,8.30
2023-04-03T14:58:41.980Z,8.60
2023-04-03T15:01:12.751Z,8.40
2023-04-03T15:03:40.842Z,8.30
2023-04-03T15:06:11.516Z,8.60
2023-04-03T15:08:42.158Z,8.50
2023-04-03T15:11:11.358Z,8.20
2023-04-03T15:13:39.968Z,8.20
2023-04-03T15:16:17.696Z,8.30
2023-04-03T15:18:46.718Z,8.40
2023-04-03T15:21:15.283Z,8.10
2023-04-03T15:23:43.824Z,8.30
2023-04-03T15:26:11.826Z,8.00
2023-04-03T15:28:41.881Z,8.00
2023-04-03T15:31:11.810Z,8.00
2023-04-03T15:33:40.310Z,8.10
2023-04-03T15:36:22.577Z,7.90
2023-04-03T15:38:56.940Z,7.90
2023-04-03T15:41:24.920Z,7.90
2023-04-03T15:43:52.955Z,7.90
2023-04-03T15:46:22.386Z,7.90
2023-04-03T15:48:50.606Z,8.00
2023-04-03T15:51:18.748Z,8.00
2023-04-03T15:53:46.774Z,7.80
2023-04-03T15:56:14.760Z,8.00
2023-04-03T15:58:42.670Z,7.80
2023-04-03T16:01:12.650Z,7.80
2023-04-03T16:03:46.280Z,7.80
2023-04-03T16:06:15.268Z,7.80
2023-04-03T16:08:43.743Z,7.90
2023-04-03T16:11:11.903Z,7.90
2023-04-03T16:13:39.972Z,8.00
2023-04-03T16:16:09.309Z,8.00
2023-04-03T16:18:38.014Z,7.90
2023-04-03T16:21:08.889Z,7.90
2023-04-03T16:23:37.037Z,7.70
2023-04-03T16:26:05.043Z,7.80
2023-04-03T16:28:33.295Z,7.80
2023-04-03T16:31:03.161Z,7.80
2023-04-03T16:33:32.011Z,7.70
2023-04-03T16:36:00.053Z,7.60
2023-04-03T16:38:29.736Z,7.60
2023-04-03T16:41:00.346Z,7.70
2023-04-03T16:43:28.377Z,7.70
2023-04-03T16:45:56.837Z,7.60
2023-04-03T16:48:25.355Z,7.50
2023-04-03T16:50:54.520Z,7.70
2023-04-03T16:53:23.044Z,7.80
2023-04-03T16:55:52.656Z,7.90
2023-04-03T16:58:22.604Z,8.00
2023-04-03T17:00:52.495Z,7.70
2023-04-03T17:03:20.570Z,8.10
2023-04-03T17:05:49.400Z,8.40
2023-04-03T17:08:19.104Z,8.60
2023-04-03T17:10:48.770Z,8.20
2023-04-03T17:13:19.660Z,7.50
2023-04-03T17:15:47.719Z,7.20
2023-04-03T17:18:16.212Z,6.90
2023-04-03T17:20:48.034Z,6.90
2023-04-03T17:23:17.580Z,6.90
2023-04-03T17:25:47.952Z,6.80
2023-04-03T17:28:17.435Z,6.70
2023-04-03T17:31:03.536Z,6.50
2023-04-03T17:33:32.215Z,6.40
2023-04-03T17:36:04.999Z,6.30
2023-04-03T17:38:35.057Z,6.20
2023-04-03T17:41:08.198Z,6.00
2023-04-03T17:43:37.030Z,6.00
2023-04-03T17:46:21.067Z,5.90
2023-04-03T17:48:52.634Z,5.90
2023-04-03T17:51:34.656Z,5.80
2023-04-03T17:54:24.924Z,5.80
2023-04-03T17:56:56.859Z,5.70
2023-04-03T17:59:43.859Z,5.60
2023-04-03T18:02:16.187Z,5.50
2023-04-03T18:04:48.901Z,5.50
2023-04-03T18:07:21.314Z,5.40
2023-04-03T18:09:52.309Z,5.30
2023-04-03T18:12:21.319Z,5.30
2023-04-03T18:14:50.755Z,5.20
2023-04-03T18:17:22.798Z,5.10
2023-04-03T18:19:51.704Z,5.10
2023-04-03T18:22:23.350Z,5.10
2023-04-03T18:24:52.516Z,5.00
2023-04-03T18:27:23.870Z,4.90
2023-04-03T18:29:59.752Z,4.90
2023-04-03T18:32:30.361Z,4.90
2023-04-03T18:34:59.076Z,4.90
2023-04-03T18:37:28.200Z,4.80
2023-04-03T18:39:56.560Z,4.80
2023-04-03T18:42:27.210Z,4.70
2023-04-03T18:45:00.923Z,4.70
2023-04-03T18:47:31.101Z,4.70
2023-04-03T18:50:21.193Z,4.70
2023-04-03T18:53:03.905Z,4.70
2023-04-03T18:55:42.811Z,4.50
2023-04-03T18:58:13.134Z,4.50
2023-04-03T19:00:44.784Z,4.40
2023-04-03T19:03:17.186Z,4.50
2023-04-03T19:05:46.607Z,4.40
2023-04-03T19:08:15.437Z,4.40
2023-04-03T19:10:45.756Z,4.30
2023-04-03T19:13:16.170Z,4.30
2023-04-03T19:15:52.088Z,4.30
2023-04-03T19:18:24.943Z,4.30
2023-04-03T19:20:55.400Z,4.20
2023-04-03T19:23:25.727Z,4.30
2023-04-03T19:26:10.353Z,4.20
2023-04-03T19:28:41.822Z,4.20
2023-04-03T19:31:16.116Z,4.20
2023-04-03T19:33:49.142Z,4.20
2023-04-03T19:36:19.404Z,4.10
2023-04-03T19:38:49.575Z,4.10
2023-04-03T19:41:22.623Z,4.20
2023-04-03T19:43:53.193Z,4.00
2023-04-03T19:46:24.808Z,4.00
2023-04-03T19:48:54.379Z,3.90
2023-04-03T19:51:23.236Z,4.00
2023-04-03T19:53:51.495Z,3.90
2023-04-03T19:56:21.302Z,4.00
2023-04-03T19:58:53.633Z,3.90
2023-04-03T20:01:22.442Z,3.80
2023-04-03T20:03:51.688Z,3.80
2023-04-03T20:06:23.103Z,3.70
2023-04-03T20:08:51.511Z,3.70
2023-04-03T20:11:19.491Z,3.70
2023-04-03T20:13:56.248Z,3.60
2023-04-03T20:16:26.012Z,3.60
2023-04-03T20:18:56.470Z,3.60
2023-04-03T20:21:30.670Z,3.60
2023-04-03T20:23:58.712Z,3.70
2023-04-03T20:26:29.767Z,3.60
2023-04-03T20:29:00.056Z,3.60
2023-04-03T20:31:30.004Z,3.50
2023-04-03T20:33:58.157Z,3.50
2023-04-03T20:36:28.392Z,3.50
2023-04-03T20:38:57.881Z,3.40
2023-04-03T20:41:25.978Z,3.40
2023-04-03T20:43:53.919Z,3.40
2023-04-03T20:46:25.493Z,3.40
2023-04-03T20:48:54.749Z,3.30
2023-04-03T20:51:23.188Z,3.30
2023-04-03T20:53:51.867Z,3.30
2023-04-03T20:56:21.301Z,3.20
2023-04-03T20:58:49.605Z,3.20
2023-04-03T21:01:21.632Z,3.10
2023-04-03T21:03:50.733Z,3.10
2023-04-03T21:06:56.435Z,3.10
2023-04-03T21:10:01.787Z,3.10
2023-04-03T21:13:07.034Z,3.10
2023-04-03T21:15:54.958Z,3.10
2023-04-03T21:18:39.242Z,3.00
2023-04-03T21:21:07.416Z,3.00
2023-04-03T21:23:35.376Z,3.00
2023-04-03T21:26:03.519Z,2.90
2023-04-03T21:28:31.797Z,2.90
2023-04-03T21:30:59.718Z,2.90
2023-04-03T21:33:27.951Z,2.80
2023-04-03T21:35:59.958Z,2.80
2023-04-03T21:38:28.126Z,2.80
2023-04-03T21:40:57.717Z,2.70
2023-04-03T21:43:25.855Z,2.70
2023-04-03T21:45:55.727Z,2.60
2023-04-03T21:48:24.199Z,2.60
2023-04-03T21:50:53.569Z,2.60
2023-04-03T21:53:23.865Z,2.60
2023-04-03T21:55:55.362Z,2.50
2023-04-03T21:58:28.074Z,2.50
2023-04-03T22:00:56.508Z,2.60
2023-04-03T22:03:24.664Z,2.50
2023-04-03T22:05:53.464Z,2.50
2023-04-03T22:08:23.022Z,2.50
2023-04-03T22:10:51.329Z,2.40
2023-04-03T22:13:19.242Z,2.40
2023-04-03T22:15:48.402Z,2.30
2023-04-03T22:18:16.392Z,2.20
2023-04-03T22:20:44.777Z,2.30
2023-04-03T22:23:12.744Z,2.40
2023-04-03T22:25:42.058Z,2.20
2023-04-03T22:28:10.044Z,2.10
2023-04-03T22:30:41.959Z,2.10
2023-04-03T22:33:10.263Z,2.10
2023-04-03T22:35:38.159Z,2.00
2023-04-03T22:38:06.211Z,2.00
2023-04-03T22:40:34.106Z,1.90
2023-04-03T22:43:03.402Z,1.90
2023-04-03T22:45:31.305Z,1.90
2023-04-03T22:48:00.141Z,1.80
2023-04-03T22:50:29.024Z,1.80
2023-04-03T22:52:57.054Z,1.80
2023-04-03T22:55:25.331Z,1.70
2023-04-03T22:57:53.224Z,1.70
2023-04-03T23:00:22.898Z,1.70
2023-04-03T23:02:50.944Z,1.60
2023-04-03T23:05:19.067Z,1.70
2023-04-03T23:07:47.295Z,1.60
2023-04-03T23:10:15.228Z,1.60
2023-04-03T23:12:43.438Z,1.50
2023-04-03T23:15:11.683Z,1.40
2023-04-03T23:17:41.072Z,1.40
2023-04-03T23:20:09.832Z,1.40
2023-04-03T23:22:37.725Z,1.30
2023-04-03T23:25:07.182Z,1.30
2023-04-03T23:27:35.098Z,1.20
2023-04-03T23:30:03.085Z,1.10
2023-04-03T23:32:31.295Z,1.10
2023-04-03T23:35:00.593Z,1.10
2023-04-03T23:37:28.606Z,1.10
2023-04-03T23:39:56.675Z,1.20
2023-04-03T23:42:24.611Z,1.20
2023-04-03T23:44:53.698Z,1.20
2023-04-03T23:47:21.932Z,1.20
2023-04-03T23:49:50.044Z,1.20
2023-04-03T23:52:19.389Z,1.20
2023-04-03T23:54:49.373Z,1.20
2023-04-03T23:57:17.556Z,1.20
2023-04-03T23:59:45.513Z,1.20
